Agar, South Dakota
Current Conditions -  °F | °C
As of 4:53 AM on Friday 31 Oct 2014 (Local Time) from KPIR Reporting Station
Clear Clear  
Wind Chill: 16°   Ceiling: Unl
Heat Index: 16°   Visibility: 10mi
Dew Point: 14°   Wind: 3mph
Humidity: 92%   Direction: 60°ENE
Pressure: 30.56"   Gusts: NA
Location:  44.84°N, 100.07°W
Report Text: KPIR 310953Z AUTO 06003KT 10SM CLR M09/M10 A3056 RMK AO2 SLP371 T10891100
Loading
Personal Weather Stations






























Interactive Weather Map
Tropical Storm Tracking
New forecast layout! Learn more

10-Day Weather Forecast

Advertisements
Track Severe Weather on mobile